Time;durP1;ratioP1;P1;durP2;ratioP2;P2;SDS_P1;SDS_P2;PMS_P1;PMS_P2;Temp;Humidity;BMP_temperature;BMP_pressure;BME280_temperature;BME280_humidity;BME280_pressure;Samples;Min_cycle;Max_cycle;Signal;HPM_P1;HPM_P2
2022/01/10 00:00:29;;;;;;;;;51.75;42.25;;;;;9.75;64.46;100638.16;5059310;28;45357;-63
2022/01/10 00:02:56;;;;;;;;;51.75;43.75;;;;;9.80;64.10;100662.00;5059149;28;45318;-62
2022/01/10 00:05:22;;;;;;;;;48.25;41.50;;;;;9.78;64.17;100661.19;5058980;28;45412;-62
2022/01/10 00:07:49;;;;;;;;;48.00;41.75;;;;;9.71;63.96;100662.31;5058954;28;45258;-62
2022/01/10 00:10:15;;;;;;;;;47.50;39.75;;;;;9.75;64.42;100670.13;5060949;28;45317;-62
2022/01/10 00:12:41;;;;;;;;;54.50;44.25;;;;;9.75;64.18;100663.94;5078193;28;46040;-62
2022/01/10 00:15:08;;;;;;;;;48.50;41.25;;;;;9.77;64.16;100668.31;5062485;28;45285;-62
2022/01/10 00:17:36;;;;;;;;;48.00;41.00;;;;;9.78;64.45;100671.84;5068046;28;45295;-62
2022/01/10 00:20:03;;;;;;;;;54.25;42.75;;;;;9.80;64.22;100683.34;5082985;28;45264;-62
2022/01/10 00:22:28;;;;;;;;;52.75;44.75;;;;;9.75;64.66;100670.13;5062511;28;45267;-62
2022/01/10 00:24:53;;;;;;;;;54.75;44.00;;;;;9.77;64.37;100680.75;5062333;28;45371;-62
2022/01/10 00:27:18;;;;;;;;;48.00;40.50;;;;;9.77;64.29;100692.31;5062316;28;45425;-62
2022/01/10 00:29:44;;;;;;;;;40.00;36.00;;;;;9.71;64.55;100691.63;5067782;28;45439;-62
2022/01/10 00:32:09;;;;;;;;;50.00;42.75;;;;;9.77;64.09;100692.31;5082410;27;45541;-62
2022/01/10 00:34:35;;;;;;;;;51.00;42.25;;;;;9.75;64.06;100696.78;5069353;28;46004;-63
2022/01/10 00:37:00;;;;;;;;;51.25;43.25;;;;;9.71;64.24;100704.94;5062184;28;45213;-62
2022/01/10 00:39:25;;;;;;;;;52.00;42.25;;;;;9.74;64.45;100712.84;5062362;28;45468;-62
2022/01/10 00:41:51;;;;;;;;;56.00;44.00;;;;;9.73;64.48;100711.09;5069113;28;45345;-62
2022/01/10 00:44:16;;;;;;;;;50.50;42.50;;;;;9.73;64.28;100711.97;5062216;28;46082;-62
2022/01/10 00:46:41;;;;;;;;;50.25;42.00;;;;;9.75;64.84;100712.78;5080715;28;45238;-62
2022/01/10 00:49:07;;;;;;;;;48.25;41.25;;;;;9.77;64.60;100715.41;5079157;28;45353;-62
2022/01/10 00:51:33;;;;;;;;;50.75;41.00;;;;;9.77;64.61;100721.63;5077754;28;45298;-62
2022/01/10 00:53:59;;;;;;;;;45.75;37.00;;;;;9.75;64.16;100720.78;5061676;28;46061;-62
2022/01/10 00:56:25;;;;;;;;;48.00;41.25;;;;;9.72;64.57;100718.25;5065126;28;46666;-62
2022/01/10 00:58:51;;;;;;;;;51.50;43.25;;;;;9.76;64.83;100716.34;5062103;28;45351;-62
2022/01/10 01:01:17;;;;;;;;;53.25;42.00;;;;;9.78;64.27;100711.84;5061619;28;45290;-62
2022/01/10 01:03:44;;;;;;;;;49.00;41.75;;;;;9.78;64.45;100719.84;5061818;28;45480;-62
2022/01/10 01:06:11;;;;;;;;;44.25;38.25;;;;;9.79;64.84;100730.47;5061543;28;45437;-62
2022/01/10 01:08:37;;;;;;;;;46.25;37.25;;;;;9.78;64.67;100730.50;5061893;28;45317;-62
2022/01/10 01:13:52;;;;;;;;;45.00;40.50;;;;;9.81;64.39;100739.28;5061717;28;45428;-62
2022/01/10 01:16:31;;;;;;;;;49.75;41.50;;;;;9.78;64.49;100743.84;5061371;28;45862;-62
2022/01/10 01:24:07;;;;;;;;;48.00;39.75;;;;;9.85;64.52;100763.19;5068814;28;45690;-62
2022/01/10 01:26:39;;;;;;;;;51.75;41.00;;;;;9.84;64.38;100762.31;5067226;28;45243;-63
2022/01/10 01:29:06;;;;;;;;;47.75;41.00;;;;;9.84;64.78;100765.00;5061717;28;45428;-62
2022/01/10 01:31:33;;;;;;;;;49.50;42.50;;;;;9.85;64.31;100773.84;5071977;28;45457;-62
2022/01/10 01:33:58;;;;;;;;;46.00;41.00;;;;;9.80;64.30;100768.66;5072728;28;45288;-62
2022/01/10 01:36:25;;;;;;;;;55.25;41.25;;;;;9.81;64.50;100773.94;5061248;28;45224;-62
2022/01/10 01:38:52;;;;;;;;;4.00;1.00;;;;;9.86;64.48;100789.81;5061730;28;45421;-62
2022/01/10 01:43:53;;;;;;;;;52.25;42.75;;;;;9.87;64.90;100804.88;5061212;28;45487;-62
2022/01/10 01:46:19;;;;;;;;;49.00;40.50;;;;;9.85;64.77;100805.84;5067382;28;45839;-62
2022/01/10 01:48:46;;;;;;;;;49.50;41.75;;;;;9.85;64.77;100821.84;5064799;28;45235;-62
2022/01/10 01:51:12;;;;;;;;;54.25;44.00;;;;;9.80;64.30;100805.97;5079202;27;45372;-62
2022/01/10 01:53:37;;;;;;;;;54.00;43.50;;;;;9.88;65.10;100819.97;5060718;28;45367;-62
2022/01/10 01:56:09;;;;;;;;;52.00;41.50;;;;;9.90;64.62;100822.59;5062438;28;45449;-62
2022/01/10 01:58:36;;;;;;;;;45.25;39.75;;;;;9.91;64.94;100830.53;5061545;28;45466;-62
2022/01/10 02:01:03;;;;;;;;;43.00;37.50;;;;;9.93;64.59;100825.16;5060810;28;45431;-62
2022/01/10 02:03:29;;;;;;;;;50.25;41.00;;;;;9.84;64.48;100810.31;5060979;28;45283;-62
2022/01/10 02:05:55;;;;;;;;;40.75;36.00;;;;;9.92;64.89;100820.75;5076454;28;45274;-62
2022/01/10 02:08:21;;;;;;;;;45.25;39.00;;;;;9.95;64.57;100829.53;5060978;28;45533;-62
2022/01/10 02:10:47;;;;;;;;;35.50;32.50;;;;;9.95;65.06;100823.31;5060464;28;45428;-62
2022/01/10 02:13:12;;;;;;;;;44.75;38.25;;;;;9.96;64.60;100833.09;5075688;28;46985;-62
2022/01/10 02:15:50;;;;;;;;;50.00;37.75;;;;;9.96;64.50;100833.09;5060451;28;45363;-62
2022/01/10 02:18:18;;;;;;;;;47.75;36.00;;;;;9.95;64.72;100834.00;5069115;28;45215;-62
2022/01/10 02:20:44;;;;;;;;;44.75;40.00;;;;;9.92;64.71;100836.75;5075060;28;45176;-62
2022/01/10 02:23:09;;;;;;;;;38.50;34.00;;;;;9.94;64.36;100838.47;5060517;28;46847;-62
2022/01/10 02:25:35;;;;;;;;;37.50;33.00;;;;;9.98;64.80;100845.44;5060062;28;45301;-62
2022/01/10 02:28:00;;;;;;;;;36.25;33.00;;;;;9.97;64.46;100842.81;5064733;28;45556;-62
2022/01/10 02:30:26;;;;;;;;;35.00;33.00;;;;;9.97;64.21;100842.81;5070084;28;45330;-62
2022/01/10 02:32:56;;;;;;;;;35.25;32.75;;;;;9.93;64.75;100844.69;5079632;27;45498;-62
2022/01/10 02:35:25;;;;;;;;;36.50;34.25;;;;;9.97;64.05;100842.81;5060537;28;45152;-62
2022/01/10 02:37:52;;;;;;;;;32.25;30.25;;;;;9.94;64.42;100841.13;5060356;28;45434;-62
2022/01/10 02:40:22;;;;;;;;;36.75;30.75;;;;;9.93;64.21;100838.50;5059747;28;45279;-62
2022/01/10 02:42:47;;;;;;;;;42.00;32.25;;;;;9.94;64.19;100843.78;5071830;28;45422;-63
2022/01/10 02:45:13;;;;;;;;;33.25;32.25;;;;;9.89;64.36;100840.38;5078991;28;45986;-62
2022/01/10 02:47:40;;;;;;;;;35.50;32.50;;;;;9.91;64.12;100841.22;5075894;28;45266;-62
2022/01/10 02:50:06;;;;;;;;;36.50;32.75;;;;;9.93;64.43;100852.69;5076161;28;45539;-62
2022/01/10 02:52:33;;;;;;;;;38.75;34.00;;;;;9.95;64.23;100863.31;5078667;28;47066;-62
2022/01/10 02:55:00;;;;;;;;;44.25;36.50;;;;;9.94;64.30;100866.91;5060459;28;45343;-62
2022/01/10 02:57:27;;;;;;;;;41.00;35.00;;;;;9.90;64.43;100868.78;5060233;28;45342;-62
2022/01/10 02:59:52;;;;;;;;;36.50;31.50;;;;;9.92;64.39;100876.75;5059825;28;45303;-62
2022/01/10 03:02:25;;;;;;;;;31.50;31.50;;;;;9.91;64.17;100878.53;5059901;28;46191;-62
2022/01/10 03:04:51;;;;;;;;;23.50;21.75;;;;;9.84;63.78;100882.31;5067750;28;45556;-62
2022/01/10 03:07:18;;;;;;;;;31.00;30.50;;;;;9.88;63.84;100886.63;5065773;28;45311;-62
2022/01/10 03:09:44;;;;;;;;;35.50;33.25;;;;;9.88;63.86;100886.63;5059884;28;45232;-62
2022/01/10 03:12:09;;;;;;;;;43.75;34.25;;;;;9.87;64.16;100892.84;5059396;28;45275;-62
2022/01/10 03:14:36;;;;;;;;;39.25;35.75;;;;;9.86;64.06;100893.78;5059768;28;45232;-62
2022/01/10 03:17:02;;;;;;;;;39.00;36.00;;;;;9.88;64.04;100899.09;5061046;28;45445;-62
2022/01/10 03:19:27;;;;;;;;;39.00;34.00;;;;;9.82;63.99;100895.69;5079900;28;45500;-62
2022/01/10 03:21:53;;;;;;;;;25.25;25.00;;;;;9.83;63.89;100899.19;5078560;28;46016;-62
2022/01/10 03:24:19;;;;;;;;;33.25;32.50;;;;;9.77;64.10;100894.03;5059992;28;45303;-62
2022/01/10 03:26:44;;;;;;;;;38.00;35.00;;;;;9.77;64.41;100892.25;5076834;28;45333;-62
2022/01/10 03:29:10;;;;;;;;;30.50;29.25;;;;;9.82;63.59;100910.78;5060288;28;45241;-62
2022/01/10 03:31:35;;;;;;;;;38.25;33.50;;;;;9.78;64.15;100912.66;5079712;28;45277;-62
2022/01/10 03:34:00;;;;;;;;;33.00;32.75;;;;;9.72;63.68;100896.84;5070552;28;45231;-63
2022/01/10 03:36:26;;;;;;;;;37.50;34.25;;;;;9.77;63.51;100904.69;5059886;28;45310;-62
2022/01/10 03:38:51;;;;;;;;;35.75;32.25;;;;;9.78;63.89;100915.31;5059694;28;45298;-62
2022/01/10 03:41:17;;;;;;;;;35.50;34.75;;;;;9.73;63.86;100917.22;5064634;28;47062;-63
2022/01/10 03:43:42;;;;;;;;;40.00;35.25;;;;;9.76;64.07;100918.94;5059532;28;45286;-62
2022/01/10 03:46:07;;;;;;;;;38.50;36.00;;;;;9.73;63.69;100911.91;5062713;28;45299;-62
2022/01/10 03:48:33;;;;;;;;;47.50;39.00;;;;;9.75;64.17;100922.53;5064871;28;45240;-62
2022/01/10 03:50:58;;;;;;;;;38.25;34.75;;;;;9.74;63.90;100931.41;5083084;27;45459;-62
2022/01/10 03:53:23;;;;;;;;;42.50;35.25;;;;;9.74;64.01;100942.09;5062795;28;45248;-63
2022/01/10 03:55:49;;;;;;;;;35.00;32.25;;;;;9.70;64.25;100937.75;5064565;28;45426;-62
2022/01/10 03:58:15;;;;;;;;;40.25;33.50;;;;;9.74;64.10;100942.09;5062775;28;45166;-62
2022/01/10 04:00:41;;;;;;;;;42.75;37.50;;;;;9.72;63.71;100938.59;5062618;28;45905;-63
2022/01/10 04:03:07;;;;;;;;;41.25;37.00;;;;;9.71;64.23;100945.72;5062946;28;45406;-62
2022/01/10 04:05:34;;;;;;;;;44.50;38.75;;;;;9.68;64.18;100948.47;5062832;28;45422;-62
2022/01/10 04:07:59;;;;;;;;;43.75;37.25;;;;;9.69;64.10;100952.88;5062725;28;45315;-62
2022/01/10 04:10:25;;;;;;;;;42.00;36.75;;;;;9.67;63.67;100949.38;5062240;28;46307;-63
2022/01/10 04:12:50;;;;;;;;;37.50;34.50;;;;;9.68;64.18;100959.13;5063595;28;45270;-62
2022/01/10 04:15:16;;;;;;;;;35.25;34.00;;;;;9.60;63.85;100947.78;5062555;28;45268;-62
2022/01/10 04:17:41;;;;;;;;;44.75;38.00;;;;;9.60;63.80;100961.09;5069867;28;45433;-62
2022/01/10 04:20:07;;;;;;;;;42.75;37.75;;;;;9.64;64.11;100973.47;5081829;28;46106;-62
2022/01/10 04:22:33;;;;;;;;;39.75;35.00;;;;;9.64;64.43;100977.00;5062485;28;45703;-62
2022/01/10 04:25:00;;;;;;;;;39.75;33.00;;;;;9.65;63.92;100975.19;5062552;28;45832;-62
2022/01/10 04:27:25;;;;;;;;;46.00;37.00;;;;;9.66;64.21;100976.94;5070459;28;45423;-62
2022/01/10 04:29:51;;;;;;;;;42.00;36.75;;;;;9.60;63.85;100972.63;5068375;28;45359;-62
2022/01/10 04:32:16;;;;;;;;;40.00;35.25;;;;;9.66;64.28;100987.63;5082620;28;45392;-62
2022/01/10 04:34:43;;;;;;;;;40.00;35.75;;;;;9.64;63.65;100979.66;5068169;28;45656;-62
2022/01/10 04:37:08;;;;;;;;;41.75;36.75;;;;;9.64;63.61;100989.44;5062406;28;45306;-62
2022/01/10 04:39:34;;;;;;;;;44.00;36.25;;;;;9.58;63.94;100987.78;5062179;28;46689;-62
2022/01/10 04:41:59;;;;;;;;;42.75;37.50;;;;;9.59;63.80;100986.03;5068872;28;45299;-62
2022/01/10 04:44:25;;;;;;;;;38.75;35.25;;;;;9.59;63.39;101000.22;5070037;28;45319;-62
2022/01/10 04:46:51;;;;;;;;;43.75;39.75;;;;;9.58;63.31;101009.09;5061780;28;45552;-62
2022/01/10 04:49:21;;;;;;;;;40.50;36.50;;;;;9.57;63.93;101015.38;5069916;28;46733;-62
2022/01/10 04:51:50;;;;;;;;;47.50;40.75;;;;;9.52;63.83;101011.94;5068793;28;45444;-62
2022/01/10 04:54:16;;;;;;;;;44.25;37.50;;;;;9.55;63.42;101016.31;5068050;28;45169;-62
2022/01/10 04:56:42;;;;;;;;;40.25;35.75;;;;;9.56;63.60;101026.94;5062604;28;45264;-62
2022/01/10 04:59:08;;;;;;;;;41.75;36.50;;;;;9.46;63.54;101025.41;5061906;28;46435;-62
2022/01/10 05:01:33;;;;;;;;;40.75;37.25;;;;;9.55;63.23;101034.97;5061926;28;45335;-62
2022/01/10 05:03:59;;;;;;;;;41.75;36.75;;;;;9.46;63.85;101034.25;5061910;28;45299;-62
2022/01/10 05:06:24;;;;;;;;;51.50;40.25;;;;;9.54;63.72;101047.41;5061933;28;45204;-62
2022/01/10 05:08:49;;;;;;;;;44.00;37.75;;;;;9.52;63.18;101049.25;5061690;28;45505;-62
2022/01/10 05:11:16;;;;;;;;;40.75;37.50;;;;;9.51;63.57;101052.81;5061575;28;45326;-62
2022/01/10 05:13:41;;;;;;;;;41.00;34.50;;;;;9.46;63.19;101049.38;5074652;28;45484;-62
2022/01/10 05:16:07;;;;;;;;;39.50;35.00;;;;;9.49;63.55;101059.06;5061624;28;45644;-63
2022/01/10 05:18:32;;;;;;;;;41.50;37.00;;;;;9.48;63.23;101060.88;5075751;28;46057;-62
2022/01/10 05:20:58;;;;;;;;;45.25;37.00;;;;;9.44;63.06;101057.41;5074321;28;45500;-62
2022/01/10 05:23:23;;;;;;;;;40.25;37.25;;;;;9.45;63.58;101069.84;5061625;28;45748;-62
2022/01/10 05:25:48;;;;;;;;;38.25;34.25;;;;;9.44;63.63;101061.88;5065993;28;45421;-62
2022/01/10 05:28:17;;;;;;;;;38.00;35.75;;;;;9.44;63.58;101075.19;5067148;28;45356;-62
2022/01/10 05:30:43;;;;;;;;;45.00;37.50;;;;;9.43;63.50;101078.75;5074681;28;45302;-62
2022/01/10 05:33:09;;;;;;;;;34.75;33.75;;;;;9.43;63.34;101084.09;5080412;27;45250;-62
2022/01/10 05:35:36;;;;;;;;;40.00;37.25;;;;;9.37;63.09;101077.13;5066717;28;45410;-62
2022/01/10 05:38:02;;;;;;;;;44.50;37.50;;;;;9.40;63.56;101086.81;5061126;28;46534;-62
2022/01/10 05:40:28;;;;;;;;;40.50;36.25;;;;;9.39;63.69;101085.94;5061297;28;45337;-62
2022/01/10 05:42:53;;;;;;;;;38.25;37.00;;;;;9.39;63.29;101093.06;5067111;28;45532;-62
2022/01/10 05:45:19;;;;;;;;;40.50;37.25;;;;;9.34;63.66;101092.25;5074647;28;45448;-62
2022/01/10 05:47:46;;;;;;;;;36.75;35.00;;;;;9.37;63.45;101100.19;5061055;28;45290;-62
2022/01/10 05:50:17;;;;;;;;;37.00;34.75;;;;;9.33;63.50;101099.41;5076575;28;45654;-62
2022/01/10 05:52:43;;;;;;;;;36.75;34.75;;;;;9.36;63.48;101111.78;5066652;28;45434;-62
2022/01/10 05:55:08;;;;;;;;;39.50;35.75;;;;;9.35;63.03;101118.00;5060584;28;45294;-62
2022/01/10 05:57:34;;;;;;;;;41.00;35.75;;;;;9.30;63.46;101117.22;5074042;28;46109;-62
2022/01/10 05:59:59;;;;;;;;;49.00;39.25;;;;;9.33;63.04;101128.69;5061030;28;45386;-62
2022/01/10 06:02:26;;;;;;;;;39.50;37.00;;;;;9.33;62.93;101133.16;5061029;28;45363;-62
2022/01/10 06:04:51;;;;;;;;;40.75;32.00;;;;;9.30;63.23;101139.41;5067648;28;45228;-62
2022/01/10 06:07:16;;;;;;;;;43.50;36.75;;;;;9.30;63.05;101146.53;5065609;28;45474;-62
2022/01/10 06:09:42;;;;;;;;;36.25;34.75;;;;;9.29;63.09;101151.00;5060838;28;45464;-62
2022/01/10 06:12:07;;;;;;;;;40.25;35.00;;;;;9.22;62.66;101141.34;5060632;28;45207;-62
2022/01/10 06:14:33;;;;;;;;;46.75;38.50;;;;;9.24;63.53;101153.75;5076376;28;45837;-62
2022/01/10 06:16:58;;;;;;;;;43.00;37.50;;;;;9.23;63.55;101172.44;5062206;28;45465;-62
2022/01/10 06:19:24;;;;;;;;;40.25;36.25;;;;;9.22;63.72;101178.66;5080745;28;45195;-62
2022/01/10 06:21:49;;;;;;;;;34.50;33.00;;;;;9.15;63.38;101182.34;5065519;28;45305;-62
2022/01/10 06:24:14;;;;;;;;;46.00;38.75;;;;;9.12;63.31;101193.06;5060614;28;45138;-62
2022/01/10 06:26:40;;;;;;;;;50.75;39.00;;;;;9.02;63.67;101197.69;5061079;28;45365;-62
2022/01/10 06:29:05;;;;;;;;;41.50;37.75;;;;;9.03;63.92;101189.66;5060479;28;45299;-62
2022/01/10 06:31:30;;;;;;;;;42.50;38.00;;;;;9.06;63.74;101213.56;5078979;28;45329;-62
2022/01/10 06:33:56;;;;;;;;;52.25;42.25;;;;;9.07;63.79;101210.00;5080427;28;45561;-62
2022/01/10 06:36:22;;;;;;;;;52.50;41.25;;;;;9.06;63.75;101212.69;5076595;28;45428;-62
2022/01/10 06:38:47;;;;;;;;;46.75;39.50;;;;;9.06;64.13;101215.38;5059873;28;45605;-62
2022/01/10 06:41:13;;;;;;;;;47.75;41.25;;;;;9.03;64.00;101216.28;5060815;28;45516;-62
2022/01/10 06:43:39;;;;;;;;;53.25;43.00;;;;;9.01;63.99;101222.56;5079598;28;45441;-62
2022/01/10 06:46:05;;;;;;;;;55.75;43.00;;;;;8.99;64.01;101227.91;5080435;28;47247;-62
2022/01/10 06:48:30;;;;;;;;;50.00;41.00;;;;;9.00;64.01;101242.09;5077030;28;45429;-62
2022/01/10 06:50:56;;;;;;;;;47.25;41.25;;;;;8.99;63.84;101245.69;5067519;27;45232;-62
2022/01/10 06:53:21;;;;;;;;;48.50;40.75;;;;;9.00;64.00;101248.28;5063394;28;45551;-63
2022/01/10 06:55:47;;;;;;;;;47.25;40.00;;;;;9.00;63.97;101266.94;5059714;28;45234;-62
2022/01/10 06:58:13;;;;;;;;;35.50;32.25;;;;;8.99;64.19;101267.00;5059761;28;45212;-62
2022/01/10 07:00:39;;;;;;;;;41.50;36.00;;;;;8.99;64.07;101275.84;5060096;28;45252;-62
2022/01/10 07:03:05;;;;;;;;;42.00;35.25;;;;;8.97;64.46;101288.31;5059547;28;45440;-62
2022/01/10 07:05:31;;;;;;;;;42.25;37.75;;;;;8.95;64.14;101299.88;5059585;28;45509;-62
2022/01/10 07:07:56;;;;;;;;;37.25;34.25;;;;;8.93;64.21;101304.38;5062619;28;45410;-63
2022/01/10 07:10:22;;;;;;;;;38.25;34.75;;;;;8.93;64.10;101307.91;5059501;28;45507;-63
2022/01/10 07:12:47;;;;;;;;;36.50;32.25;;;;;8.90;63.95;101316.84;5059524;28;45423;-64
2022/01/10 07:15:14;;;;;;;;;30.25;25.50;;;;;8.84;64.37;101319.59;5071864;28;45597;-64
2022/01/10 07:17:39;;;;;;;;;28.75;24.50;;;;;8.81;64.31;101326.75;5074116;28;45796;-63
2022/01/10 07:20:05;;;;;;;;;29.50;26.75;;;;;8.78;64.04;101332.97;5073620;28;45473;-65
2022/01/10 07:22:31;;;;;;;;;27.75;25.00;;;;;8.79;64.34;101347.19;5074165;28;45285;-64
2022/01/10 07:24:56;;;;;;;;;28.75;27.00;;;;;8.73;64.13;101340.16;5064391;28;45988;-65
2022/01/10 07:27:22;;;;;;;;;25.25;24.75;;;;;8.70;64.06;101343.75;5072762;28;45215;-65
2022/01/10 07:29:49;;;;;;;;;25.50;23.50;;;;;8.69;64.63;101351.78;5076584;28;45332;-65
2022/01/10 07:32:15;;;;;;;;;30.75;26.00;;;;;8.62;64.25;101348.31;5061484;28;46765;-64
2022/01/10 07:34:40;;;;;;;;;33.00;29.50;;;;;8.74;64.65;101365.88;5066840;28;45264;-64
2022/01/10 07:37:06;;;;;;;;;20.75;19.00;;;;;8.76;64.38;101371.19;5065648;28;45488;-64
2022/01/10 07:39:31;;;;;;;;;24.25;20.75;;;;;8.73;64.27;101382.75;5066080;28;45415;-65
2022/01/10 07:41:57;;;;;;;;;17.00;17.00;;;;;8.69;64.11;101391.69;5060766;27;45470;-64
2022/01/10 07:44:22;;;;;;;;;19.50;18.00;;;;;8.67;64.23;101404.13;5075965;28;46937;-64
2022/01/10 07:46:47;;;;;;;;;30.50;23.50;;;;;8.62;64.16;101396.22;5074975;28;45387;-64
2022/01/10 07:49:13;;;;;;;;;36.50;29.50;;;;;8.56;64.41;101392.75;5073395;28;45365;-64
2022/01/10 07:51:38;;;;;;;;;30.75;29.00;;;;;8.46;63.56;101410.63;5077751;28;45935;-64
2022/01/10 07:54:03;;;;;;;;;35.25;29.00;;;;;8.26;64.21;101418.81;5063916;27;45457;-64
2022/01/10 07:56:29;;;;;;;;;29.75;27.25;;;;;8.22;64.32;101433.03;5067449;28;45330;-64
2022/01/10 07:58:56;;;;;;;;;34.25;28.25;;;;;8.08;64.27;101450.03;5090298;27;45335;-63
2022/01/10 08:01:21;;;;;;;;;35.25;32.00;;;;;7.85;64.46;101449.38;5085364;27;45452;-64
2022/01/10 08:03:52;;;;;;;;;30.00;27.00;;;;;7.67;64.74;101443.38;5069310;28;45645;-63
2022/01/10 08:06:19;;;;;;;;;31.00;22.00;;;;;7.64;64.55;101464.66;5069682;27;45688;-64
2022/01/10 08:08:44;;;;;;;;;23.50;23.50;;;;;7.59;64.91;101469.13;5087470;27;45332;-62
2022/01/10 08:11:10;;;;;;;;;29.25;24.50;;;;;7.56;64.93;101477.13;5072467;27;45528;-64
2022/01/10 08:13:35;;;;;;;;;33.50;26.75;;;;;7.54;64.78;101484.22;5069849;28;46097;-64
2022/01/10 08:16:01;;;;;;;;;19.00;17.00;;;;;7.45;65.02;101485.19;5059865;27;45621;-64
2022/01/10 08:18:30;;;;;;;;;20.25;19.00;;;;;7.48;65.47;101482.47;5076032;27;45713;-64
2022/01/10 08:20:55;;;;;;;;;23.25;18.25;;;;;7.50;65.39;101471.84;5069648;28;45417;-64
2022/01/10 08:23:21;;;;;;;;;36.00;27.00;;;;;7.54;65.07;101473.59;5069651;27;45969;-65
2022/01/10 08:25:46;;;;;;;;;25.25;22.50;;;;;7.56;65.22;101482.44;5077639;28;45400;-64
2022/01/10 08:28:11;;;;;;;;;27.50;25.00;;;;;7.58;65.61;101478.88;5073991;28;45264;-65
2022/01/10 08:30:37;;;;;;;;;28.75;23.25;;;;;7.66;65.45;101497.41;5071639;28;45588;-64
2022/01/10 08:33:02;;;;;;;;;28.50;24.25;;;;;7.68;65.42;101492.94;5075451;27;45451;-65
2022/01/10 08:35:28;;;;;;;;;24.25;22.50;;;;;7.65;65.50;101495.66;5072260;28;45317;-65
2022/01/10 08:37:53;;;;;;;;;27.00;21.00;;;;;7.68;65.39;101500.03;5078009;27;45375;-64
2022/01/10 08:40:18;;;;;;;;;28.00;23.75;;;;;7.73;65.01;101515.03;5064195;28;45630;-64
2022/01/10 08:42:44;;;;;;;;;26.50;24.50;;;;;7.68;65.16;101508.88;5064197;28;46177;-62
2022/01/10 08:45:10;;;;;;;;;25.25;20.75;;;;;7.72;65.34;101523.06;5079907;27;45252;-65
2022/01/10 08:47:36;;;;;;;;;20.25;17.50;;;;;7.73;65.39;101519.47;5066566;28;45426;-64
2022/01/10 08:50:05;;;;;;;;;30.50;23.25;;;;;7.73;65.09;101527.47;5075651;28;45309;-65
2022/01/10 08:52:30;;;;;;;;;26.25;23.50;;;;;7.70;65.34;101512.44;5080125;28;46515;-64
2022/01/10 08:54:55;;;;;;;;;28.00;20.50;;;;;7.65;65.19;101522.22;5065076;28;45468;-64
2022/01/10 08:57:21;;;;;;;;;17.25;16.25;;;;;7.64;65.17;101536.38;5069422;28;45683;-65
2022/01/10 08:59:46;;;;;;;;;29.00;28.25;;;;;7.67;65.79;101544.34;5062771;28;45526;-64
2022/01/10 09:02:12;;;;;;;;;25.25;23.75;;;;;7.72;65.36;101546.97;5080407;28;46201;-64
2022/01/10 09:04:39;;;;;;;;;25.25;24.00;;;;;7.73;65.13;101560.22;5062637;28;45350;-64
2022/01/10 09:07:05;;;;;;;;;23.50;22.00;;;;;7.70;65.42;101560.28;5071176;28;45324;-64
2022/01/10 09:09:31;;;;;;;;;23.75;22.75;;;;;7.64;65.27;101567.41;5067373;28;45489;-62
2022/01/10 09:11:57;;;;;;;;;23.75;21.75;;;;;7.46;65.37;101563.09;5078984;28;45450;-65
2022/01/10 09:14:23;;;;;;;;;28.50;24.75;;;;;7.41;65.83;101566.63;5061946;28;45323;-65
2022/01/10 09:16:48;;;;;;;;;22.50;21.50;;;;;7.52;65.79;101577.22;5069777;28;45842;-65
2022/01/10 09:19:14;;;;;;;;;33.50;30.25;;;;;7.57;66.02;101578.06;5076939;28;45698;-65
2022/01/10 09:21:41;;;;;;;;;34.50;30.75;;;;;7.56;66.18;101578.06;5076102;28;45504;-65
2022/01/10 09:24:06;;;;;;;;;29.00;25.75;;;;;7.59;65.90;101580.72;5074211;28;45367;-65
2022/01/10 09:26:32;;;;;;;;;34.75;32.00;;;;;7.66;66.37;101587.75;5075294;28;46170;-65
2022/01/10 09:28:59;;;;;;;;;33.75;26.75;;;;;7.71;65.90;101587.72;5066892;28;45371;-65
2022/01/10 09:31:25;;;;;;;;;29.00;27.25;;;;;7.73;65.44;101596.56;5080049;28;47146;-65
2022/01/10 09:33:54;;;;;;;;;26.75;25.75;;;;;7.69;65.53;101601.00;5074922;27;45413;-65
2022/01/10 09:36:22;;;;;;;;;28.50;23.75;;;;;7.69;65.76;101600.16;5073093;28;45263;-66
2022/01/10 09:38:47;;;;;;;;;30.50;24.00;;;;;7.75;65.88;101611.63;5061861;28;45408;-66
2022/01/10 09:41:13;;;;;;;;;25.75;25.00;;;;;7.79;66.21;101618.66;5071296;28;46395;-66
2022/01/10 09:43:43;;;;;;;;;26.75;21.50;;;;;7.81;65.96;101616.00;5060538;28;45400;-65
2022/01/10 09:46:08;;;;;;;;;28.25;27.50;;;;;7.81;65.66;101620.44;5070902;28;45334;-66
2022/01/10 09:48:34;;;;;;;;;23.25;21.75;;;;;7.82;65.88;101633.72;5078638;28;45398;-66
2022/01/10 09:50:59;;;;;;;;;24.75;19.00;;;;;7.69;65.82;101616.97;5076460;28;45490;-65
2022/01/10 09:53:25;;;;;;;;;21.75;21.75;;;;;7.81;65.69;101639.03;5073530;28;45775;-66
2022/01/10 09:55:50;;;;;;;;;25.00;21.75;;;;;7.82;65.87;101647.00;5066825;28;45342;-66
2022/01/10 09:58:16;;;;;;;;;24.00;20.75;;;;;7.76;65.97;101639.94;5060181;28;45566;-66
2022/01/10 10:00:41;;;;;;;;;25.75;22.50;;;;;7.85;65.95;101648.75;5065309;28;45418;-65
2022/01/10 10:03:07;;;;;;;;;23.75;22.75;;;;;7.83;65.87;101634.59;5073424;28;45438;-66
2022/01/10 10:05:32;;;;;;;;;27.50;23.50;;;;;7.91;65.90;101648.72;5064503;28;45538;-66
2022/01/10 10:08:00;;;;;;;;;26.25;20.25;;;;;7.91;65.75;101659.34;5072939;28;45558;-67
2022/01/10 10:10:28;;;;;;;;;33.50;27.00;;;;;7.91;65.98;101673.53;5077822;28;48299;-66
2022/01/10 10:12:54;;;;;;;;;28.00;22.25;;;;;7.89;66.02;101662.03;5065515;28;45681;-62
2022/01/10 10:15:26;;;;;;;;;35.50;30.25;;;;;7.93;66.13;101670.84;5074386;28;45380;-64
2022/01/10 10:17:52;;;;;;;;;24.50;22.50;;;;;7.83;65.75;101647.88;5067149;28;45266;-64
2022/01/10 10:20:22;;;;;;;;;29.00;23.50;;;;;7.93;65.73;101666.41;5075346;28;48104;-62
2022/01/10 10:22:50;;;;;;;;;24.00;22.25;;;;;8.02;65.97;101675.22;5074541;27;45464;-63
2022/01/10 10:25:17;;;;;;;;;24.00;22.75;;;;;7.95;66.08;101667.31;5074109;27;45460;-61
2022/01/10 10:27:45;;;;;;;;;24.50;21.00;;;;;7.98;65.84;101680.59;5068865;27;45640;-62
2022/01/10 10:30:22;;;;;;;;;30.00;24.00;;;;;7.96;65.84;101681.47;5075364;27;46632;-62
2022/01/10 10:32:50;;;;;;;;;33.50;30.50;;;;;7.94;65.73;101684.13;5076621;27;45392;-62
2022/01/10 10:35:16;;;;;;;;;27.50;25.00;;;;;7.93;65.80;101670.84;5064061;27;45445;-62
2022/01/10 10:37:43;;;;;;;;;25.50;22.00;;;;;7.97;65.93;101685.91;5066473;27;45455;-62
2022/01/10 10:40:13;;;;;;;;;30.00;25.50;;;;;7.99;66.21;101689.44;5064911;27;46981;-62
2022/01/10 10:42:40;;;;;;;;;30.50;22.75;;;;;7.98;66.21;101687.66;5068899;27;45667;-62
2022/01/10 10:45:07;;;;;;;;;28.50;26.50;;;;;7.99;66.12;101694.75;5062021;27;45744;-62
2022/01/10 10:47:35;;;;;;;;;29.25;25.25;;;;;8.02;66.36;101692.06;5067174;27;45531;-62
2022/01/10 10:50:01;;;;;;;;;28.25;24.00;;;;;8.02;66.36;101697.41;5066440;27;45682;-62
2022/01/10 10:52:32;;;;;;;;;35.50;26.75;;;;;8.03;66.18;101708.91;5064491;28;45494;-62
2022/01/10 10:55:04;;;;;;;;;35.75;30.50;;;;;8.02;66.21;101710.69;5065708;28;45257;-64
2022/01/10 10:57:32;;;;;;;;;28.00;24.00;;;;;8.04;66.30;101710.69;5078231;28;45370;-65
2022/01/10 10:59:59;;;;;;;;;34.25;29.75;;;;;8.00;66.50;101714.25;5064456;28;46130;-65
2022/01/10 11:02:25;;;;;;;;;31.25;27.75;;;;;7.98;66.39;101700.94;5079676;28;45325;-65
2022/01/10 11:04:50;;;;;;;;;34.25;29.00;;;;;8.03;66.14;101712.44;5064270;28;45457;-64
2022/01/10 11:07:19;;;;;;;;;34.50;32.25;;;;;8.03;66.57;101725.72;5075029;28;45320;-63
2022/01/10 11:09:46;;;;;;;;;28.25;25.00;;;;;8.00;66.84;101717.78;5067063;28;45365;-64
2022/01/10 11:12:13;;;;;;;;;31.00;24.50;;;;;8.02;66.78;101710.69;5066234;28;45585;-63
2022/01/10 11:14:40;;;;;;;;;39.25;34.50;;;;;8.10;66.95;101711.53;5069637;28;45618;-65
2022/01/10 11:17:05;;;;;;;;;34.25;26.25;;;;;8.12;66.34;101716.84;5079579;28;45324;-65
2022/01/10 11:19:31;;;;;;;;;35.75;28.25;;;;;8.10;66.38;101713.28;5066355;27;45435;-61
2022/01/10 11:22:05;;;;;;;;;34.00;29.50;;;;;8.15;66.40;101725.66;5072182;28;45473;-62